Time;durP1;ratioP1;P1;durP2;ratioP2;P2;SDS_P1;SDS_P2;PMS_P1;PMS_P2;Temp;Humidity;BMP_temperature;BMP_pressure;BME280_temperature;BME280_humidity;BME280_pressure;Samples;Min_cycle;Max_cycle;Signal;HPM_P1;HPM_P2
2023/02/28 00:00:13;;;;;;;2.55;2.22;;;0.50;99.90;;;;;;4993164;28;20053;-47
2023/02/28 00:02:41;;;;;;;4.13;2.40;;;0.50;99.90;;;;;;4989572;28;20037;-43
2023/02/28 00:05:08;;;;;;;2.17;1.98;;;0.50;99.90;;;;;;5004272;23;20069;-55
2023/02/28 00:07:34;;;;;;;2.60;2.40;;;0.40;99.90;;;;;;4990699;28;20105;-53
2023/02/28 00:10:00;;;;;;;7.00;2.00;;;0.40;99.90;;;;;;4992310;28;20483;-54
2023/02/28 00:12:26;;;;;;;2.38;2.17;;;0.40;99.90;;;;;;5007604;28;20057;-53
2023/02/28 00:14:52;;;;;;;6.28;2.10;;;0.40;99.90;;;;;;4993640;28;20114;-54
2023/02/28 00:17:20;;;;;;;3.70;2.13;;;0.40;99.90;;;;;;4993004;28;20109;-55
2023/02/28 00:19:47;;;;;;;2.42;2.22;;;0.40;99.90;;;;;;4993061;28;20512;-49
2023/02/28 00:22:13;;;;;;;2.20;2.08;;;0.40;99.90;;;;;;4994456;28;20516;-52
2023/02/28 00:24:38;;;;;;;2.20;2.10;;;0.40;99.90;;;;;;4994333;28;20081;-51
2023/02/28 00:27:04;;;;;;;2.45;2.22;;;0.30;99.90;;;;;;4993019;28;20023;-52
2023/02/28 00:29:30;;;;;;;4.20;2.30;;;0.30;99.90;;;;;;4994957;28;20050;-48
2023/02/28 00:31:56;;;;;;;6.22;2.25;;;0.30;99.90;;;;;;4994165;28;20040;-54
2023/02/28 00:34:21;;;;;;;3.95;2.03;;;0.30;99.90;;;;;;4993827;28;20530;-51
2023/02/28 00:36:48;;;;;;;2.83;2.05;;;0.30;99.90;;;;;;4993941;28;20018;-54
2023/02/28 00:39:14;;;;;;;2.55;2.30;;;0.30;99.90;;;;;;4994264;28;20023;-50
2023/02/28 00:41:40;;;;;;;2.60;2.40;;;0.30;99.90;;;;;;4994144;28;20394;-48
2023/02/28 00:44:05;;;;;;;2.33;2.13;;;0.30;99.90;;;;;;4994217;28;20038;-50
2023/02/28 00:46:31;;;;;;;3.78;2.30;;;0.30;99.90;;;;;;4993874;28;20254;-51
2023/02/28 00:48:56;;;;;;;3.17;2.17;;;0.30;99.90;;;;;;4993704;28;20445;-50
2023/02/28 00:51:21;;;;;;;2.40;2.20;;;0.20;99.90;;;;;;4992587;28;20022;-55
2023/02/28 00:53:47;;;;;;;2.50;2.30;;;0.20;99.90;;;;;;4993777;28;20038;-51
2023/02/28 00:56:13;;;;;;;2.40;2.15;;;0.20;99.90;;;;;;4992592;28;20109;-52
2023/02/28 00:58:39;;;;;;;2.60;2.40;;;0.20;99.90;;;;;;4993426;28;20063;-53
2023/02/28 01:01:05;;;;;;;2.65;2.40;;;0.10;99.90;;;;;;4992681;28;20057;-51
2023/02/28 01:03:31;;;;;;;4.70;2.38;;;0.20;99.90;;;;;;4993523;28;20057;-49
2023/02/28 01:05:56;;;;;;;2.70;2.50;;;0.10;99.90;;;;;;4991615;28;20486;-53
2023/02/28 01:08:22;;;;;;;2.60;2.50;;;0.10;99.90;;;;;;4993786;28;20034;-51
2023/02/28 01:10:48;;;;;;;2.92;2.20;;;0.10;99.90;;;;;;4993689;28;20030;-50
2023/02/28 01:13:14;;;;;;;2.97;2.60;;;0.20;99.90;;;;;;4993547;28;20076;-53
2023/02/28 01:15:45;;;;;;;3.10;2.58;;;0.10;99.90;;;;;;4993272;28;20030;-48
2023/02/28 01:18:10;;;;;;;3.13;2.85;;;0.10;99.90;;;;;;4993141;28;20060;-50
2023/02/28 01:20:39;;;;;;;2.60;2.40;;;0.10;99.90;;;;;;4993451;28;20054;-52
2023/02/28 01:23:04;;;;;;;3.33;2.83;;;0.10;99.90;;;;;;4992123;28;20080;-48
2023/02/28 01:25:30;;;;;;;3.17;2.97;;;0.10;99.90;;;;;;4993041;28;20493;-49
2023/02/28 01:27:55;;;;;;;3.05;2.83;;;0.10;99.90;;;;;;4993403;28;20034;-48
2023/02/28 01:30:21;;;;;;;3.90;3.17;;;0.10;99.90;;;;;;4992933;28;20034;-50
2023/02/28 01:32:47;;;;;;;5.68;3.03;;;0.10;99.90;;;;;;4992998;28;20030;-47
2023/02/28 01:35:12;;;;;;;3.88;2.75;;;0.00;99.90;;;;;;4991679;28;20023;-52
2023/02/28 01:37:38;;;;;;;5.53;2.95;;;0.00;99.90;;;;;;4991910;28;20029;-48
2023/02/28 01:40:04;;;;;;;3.42;2.95;;;0.00;99.90;;;;;;4993295;28;20027;-46
2023/02/28 01:42:29;;;;;;;3.20;2.90;;;0.10;99.90;;;;;;4991639;28;20026;-48
2023/02/28 01:45:18;;;;;;;5.60;4.03;;;0.00;99.90;;;;;;4992606;28;20494;-50
2023/02/28 01:47:45;;;;;;;3.35;3.05;;;0.00;99.90;;;;;;4992655;28;20041;-48
2023/02/28 01:50:16;;;;;;;4.35;3.30;;;0.00;99.90;;;;;;4991640;28;20490;-52
2023/02/28 01:52:42;;;;;;;5.10;2.72;;;0.00;99.90;;;;;;4991314;28;20517;-48
2023/02/28 01:55:12;;;;;;;3.38;3.08;;;0.00;99.90;;;;;;4992616;28;20494;-49
2023/02/28 01:57:52;;;;;;;4.05;3.65;;;0.00;99.90;;;;;;4992158;28;20093;-50
2023/02/28 02:00:21;;;;;;;4.93;3.47;;;-0.10;99.90;;;;;;4992673;28;20033;-52
2023/02/28 02:02:52;;;;;;;3.40;3.00;;;-0.10;99.90;;;;;;4991159;28;20033;-50
2023/02/28 02:05:20;;;;;;;4.18;3.13;;;-0.10;99.90;;;;;;4990958;28;20483;-49
2023/02/28 02:07:49;;;;;;;4.68;3.30;;;-0.10;99.90;;;;;;4992668;28;20035;-49
2023/02/28 02:10:39;;;;;;;3.55;3.25;;;-0.10;99.90;;;;;;4992603;28;20050;-48
2023/02/28 02:13:34;;;;;;;3.72;3.42;;;-0.10;99.90;;;;;;4991751;28;20073;-48
2023/02/28 02:16:28;;;;;;;4.20;3.80;;;-0.10;99.90;;;;;;4991863;28;20134;-46
2023/02/28 02:19:33;;;;;;;4.15;3.45;;;-0.10;99.90;;;;;;4992270;28;20121;-50
2023/02/28 02:22:37;;;;;;;15.10;4.05;;;-0.20;99.90;;;;;;4932088;29;20028;-48
2023/02/28 02:25:26;;;;;;;8.25;4.45;;;-0.20;99.90;;;;;;4931939;29;20037;-49
2023/02/28 02:28:17;;;;;;;4.53;4.13;;;-0.20;99.90;;;;;;4985025;28;20049;-47
2023/02/28 02:30:58;;;;;;;3.90;3.50;;;-0.20;99.90;;;;;;4992031;28;20495;-49
2023/02/28 02:33:28;;;;;;;4.88;4.15;;;-0.20;99.90;;;;;;4992102;28;20030;-47
2023/02/28 02:35:54;;;;;;;13.60;4.43;;;-0.20;99.90;;;;;;4992099;28;20014;-46
2023/02/28 02:38:34;;;;;;;6.75;5.18;;;-0.20;99.90;;;;;;4992043;28;20121;-48
2023/02/28 02:41:16;;;;;;;6.47;4.35;;;-0.20;99.90;;;;;;4992070;28;20023;-48
2023/02/28 02:44:02;;;;;;;5.10;4.60;;;-0.20;99.90;;;;;;4991145;28;20041;-49
2023/02/28 02:46:33;;;;;;;14.93;4.88;;;-0.20;99.90;;;;;;4991007;28;20026;-49
2023/02/28 02:49:03;;;;;;;6.65;5.03;;;-0.30;99.90;;;;;;4991225;28;20066;-54
2023/02/28 02:51:32;;;;;;;4.93;4.43;;;-0.20;99.90;;;;;;4992413;28;20027;-51
2023/02/28 02:54:17;;;;;;;4.68;3.78;;;-0.30;99.90;;;;;;4992012;28;20077;-51
2023/02/28 02:56:46;;;;;;;4.70;4.00;;;-0.30;99.90;;;;;;4992013;28;20022;-48
2023/02/28 02:59:20;;;;;;;5.38;4.85;;;-0.20;99.90;;;;;;4990893;28;20512;-49
2023/02/28 03:01:48;;;;;;;4.63;4.15;;;-0.20;99.90;;;;;;4992124;28;20029;-48
2023/02/28 03:04:20;;;;;;;7.80;5.15;;;-0.30;99.90;;;;;;4991880;28;20030;-48
2023/02/28 03:06:45;;;;;;;5.30;4.80;;;-0.30;99.90;;;;;;4991696;28;20387;-52
2023/02/28 03:09:11;;;;;;;5.93;5.20;;;-0.30;99.90;;;;;;4990683;28;20026;-48
2023/02/28 03:11:38;;;;;;;5.82;4.13;;;-0.20;99.90;;;;;;4991744;28;20030;-47
2023/02/28 03:14:21;;;;;;;5.43;4.82;;;-0.30;99.90;;;;;;4991672;28;20038;-48
2023/02/28 03:17:15;;;;;;;5.20;4.70;;;-0.30;99.90;;;;;;4991630;28;20498;-49
2023/02/28 03:19:51;;;;;;;5.80;4.78;;;-0.30;99.90;;;;;;4991776;28;20027;-47
2023/02/28 03:22:26;;;;;;;5.85;4.70;;;-0.30;99.90;;;;;;4991633;28;20050;-49
2023/02/28 03:25:20;;;;;;;5.88;5.00;;;-0.30;99.90;;;;;;4991656;28;20042;-49
2023/02/28 03:27:55;;;;;;;5.20;4.70;;;-0.30;99.90;;;;;;4970768;28;20494;-48
2023/02/28 03:30:48;;;;;;;7.85;4.95;;;-0.40;99.90;;;;;;4995172;28;20494;-52
2023/02/28 03:33:38;;;;;;;8.02;4.35;;;-0.40;99.90;;;;;;4995084;28;20034;-51
2023/02/28 03:36:06;;;;;;;8.82;5.20;;;-0.50;99.90;;;;;;4994949;28;20018;-49
2023/02/28 03:38:37;;;;;;;4.97;4.43;;;-0.50;99.90;;;;;;4994899;28;20037;-50
2023/02/28 03:41:14;;;;;;;4.47;3.95;;;-0.50;99.90;;;;;;4994952;28;20100;-50
2023/02/28 03:43:43;;;;;;;4.20;3.83;;;;;;;;;;4995008;28;20026;-49
2023/02/28 03:46:11;;;;;;;5.43;4.45;;;;;;;;;;4994941;28;20116;-50
2023/02/28 03:48:40;;;;;;;5.65;4.72;;;;;;;;;;4993420;28;20029;-49
2023/02/28 03:51:10;;;;;;;6.97;4.82;;;-0.50;99.90;;;;;;4994860;28;20031;-48
2023/02/28 03:53:41;;;;;;;6.40;4.57;;;-0.60;99.90;;;;;;4994782;28;20035;-53
2023/02/28 03:56:20;;;;;;;9.60;5.35;;;-0.60;99.90;;;;;;4994663;28;20084;-50
2023/02/28 03:59:02;;;;;;;6.80;4.97;;;-0.60;99.90;;;;;;4994337;28;20023;-52
2023/02/28 04:01:32;;;;;;;5.55;4.65;;;-0.60;99.90;;;;;;4994585;28;20418;-50
2023/02/28 04:03:57;;;;;;;6.10;4.45;;;-0.60;99.90;;;;;;4994513;28;20099;-48
2023/02/28 04:06:24;;;;;;;4.50;3.92;;;-0.60;99.90;;;;;;4994185;28;20372;-49
2023/02/28 04:08:50;;;;;;;4.75;4.25;;;-0.60;99.90;;;;;;4994591;28;20354;-47
2023/02/28 04:11:43;;;;;;;4.70;4.22;;;-0.60;99.90;;;;;;4994471;28;20478;-48
2023/02/28 04:14:09;;;;;;;3.92;3.47;;;-0.70;99.90;;;;;;4992192;28;20057;-51
2023/02/28 04:16:38;;;;;;;7.38;4.82;;;-0.60;99.90;;;;;;4994140;28;20033;-47
2023/02/28 04:19:05;;;;;;;5.85;5.30;;;-0.70;99.90;;;;;;4994654;28;20057;-48
2023/02/28 04:21:33;;;;;;;6.07;4.22;;;-0.70;99.90;;;;;;4993139;28;20026;-47
2023/02/28 04:24:00;;;;;;;4.88;4.35;;;-0.70;99.90;;;;;;4993378;28;20470;-49
2023/02/28 04:26:29;;;;;;;5.97;4.47;;;-0.70;99.90;;;;;;4994074;28;20029;-46
2023/02/28 04:28:55;;;;;;;5.28;4.57;;;-0.70;99.90;;;;;;4994316;28;20437;-50
2023/02/28 04:31:21;;;;;;;5.25;4.40;;;-0.70;99.90;;;;;;4994058;28;20022;-47
2023/02/28 04:33:46;;;;;;;4.65;4.10;;;-0.70;99.90;;;;;;4994055;28;20037;-48
2023/02/28 04:36:14;;;;;;;6.38;3.95;;;-0.60;99.90;;;;;;4994224;28;20089;-47
2023/02/28 04:38:39;;;;;;;4.90;4.40;;;-0.60;99.90;;;;;;4992710;28;20445;-47
2023/02/28 04:41:05;;;;;;;4.95;4.32;;;-0.50;99.90;;;;;;4994251;28;20057;-52
2023/02/28 04:43:31;;;;;;;4.90;4.15;;;-0.50;99.90;;;;;;4994225;28;20514;-50
2023/02/28 04:46:00;;;;;;;7.70;4.78;;;-0.50;99.90;;;;;;4992654;28;20041;-47
2023/02/28 04:48:28;;;;;;;4.20;3.90;;;-0.50;99.90;;;;;;4993584;28;20022;-47
2023/02/28 04:50:54;;;;;;;5.97;4.82;;;-0.50;99.90;;;;;;4993776;28;20154;-47
2023/02/28 04:53:20;;;;;;;4.75;4.35;;;-0.60;99.90;;;;;;4993570;28;20026;-50
2023/02/28 04:55:46;;;;;;;6.78;4.88;;;-0.50;99.90;;;;;;4992091;28;20022;-51
2023/02/28 04:58:14;;;;;;;5.10;4.68;;;-0.50;99.90;;;;;;4993183;28;20033;-52
2023/02/28 05:00:40;;;;;;;7.07;4.72;;;-0.50;99.90;;;;;;4993593;28;20048;-50
2023/02/28 05:03:06;;;;;;;4.35;3.95;;;-0.50;99.90;;;;;;4992213;28;20023;-56
2023/02/28 05:05:31;;;;;;;5.10;4.40;;;-0.50;99.90;;;;;;4993264;28;20572;-49
2023/02/28 05:07:57;;;;;;;5.03;4.32;;;-0.50;99.90;;;;;;4992019;28;20081;-48
2023/02/28 05:10:22;;;;;;;4.43;4.03;;;-0.50;99.90;;;;;;4995285;28;20026;-49
2023/02/28 05:12:48;;;;;;;4.82;4.43;;;-0.50;99.90;;;;;;4993395;28;20081;-50
2023/02/28 05:15:15;;;;;;;4.70;4.30;;;-0.50;99.90;;;;;;4993177;28;20053;-49
2023/02/28 05:17:41;;;;;;;4.88;4.47;;;-0.60;99.90;;;;;;4993158;28;20122;-48
2023/02/28 05:20:11;;;;;;;4.68;4.20;;;-0.60;99.90;;;;;;4993116;28;20038;-50
2023/02/28 05:22:37;;;;;;;5.22;4.15;;;-0.70;99.90;;;;;;4993095;28;20034;-53
2023/02/28 05:25:04;;;;;;;8.63;4.40;;;-0.70;99.90;;;;;;4992970;28;20109;-53
2023/02/28 05:27:30;;;;;;;7.18;4.95;;;-0.40;99.90;;;;;;4992844;28;20033;-48
2023/02/28 05:29:56;;;;;;;6.50;4.70;;;-0.50;99.90;;;;;;4993095;28;20113;-50
2023/02/28 05:32:21;;;;;;;5.80;4.55;;;-0.60;99.90;;;;;;4992811;28;20027;-51
2023/02/28 05:34:47;;;;;;;4.85;4.45;;;-0.70;99.90;;;;;;4992557;28;20023;-52
2023/02/28 05:37:14;;;;;;;4.80;4.38;;;-0.70;99.90;;;;;;4992865;28;20062;-49
2023/02/28 05:39:40;;;;;;;5.88;4.68;;;-0.70;99.90;;;;;;4991662;28;20513;-49
2023/02/28 05:42:06;;;;;;;4.43;4.03;;;-0.70;99.90;;;;;;4992627;28;20067;-49
2023/02/28 05:44:32;;;;;;;5.15;4.20;;;-0.60;99.90;;;;;;4992526;28;20168;-50
2023/02/28 05:46:57;;;;;;;4.93;4.47;;;-0.80;99.90;;;;;;4991401;28;20485;-54
2023/02/28 05:49:23;;;;;;;4.85;4.22;;;-0.80;99.90;;;;;;4993283;28;20022;-49
2023/02/28 05:51:48;;;;;;;4.40;4.07;;;-0.80;99.90;;;;;;4992059;28;20430;-51
2023/02/28 05:54:14;;;;;;;7.07;4.20;;;-0.80;99.90;;;;;;4991316;28;20035;-52
2023/02/28 05:56:43;;;;;;;4.78;4.05;;;-0.80;99.90;;;;;;4991167;28;20019;-53
2023/02/28 05:59:09;;;;;;;4.60;4.20;;;-0.80;99.90;;;;;;4992256;28;20474;-51
2023/02/28 06:01:37;;;;;;;4.07;3.67;;;-0.80;99.90;;;;;;4992334;28;20030;-48
2023/02/28 06:04:05;;;;;;;3.85;3.42;;;-0.80;99.90;;;;;;4992448;28;20070;-49
2023/02/28 06:06:33;;;;;;;4.82;4.22;;;-0.90;99.90;;;;;;5022506;23;20057;-50
2023/02/28 06:08:59;;;;;;;7.38;4.60;;;-0.90;99.90;;;;;;5012090;28;20022;-50
2023/02/28 06:11:26;;;;;;;7.57;3.78;;;-0.90;99.90;;;;;;5012217;28;20080;-55
2023/02/28 06:13:57;;;;;;;5.35;4.22;;;-0.90;99.90;;;;;;5012374;28;20022;-52
2023/02/28 06:16:23;;;;;;;7.63;4.30;;;-0.90;99.90;;;;;;5010336;28;20080;-51
2023/02/28 06:18:49;;;;;;;7.80;4.15;;;-0.90;99.90;;;;;;5011883;28;20021;-50
2023/02/28 06:21:15;;;;;;;6.07;4.03;;;-0.90;99.90;;;;;;5010723;28;20022;-52
2023/02/28 06:23:40;;;;;;;7.72;4.13;;;-0.90;99.90;;;;;;5010585;28;20076;-50
2023/02/28 06:26:06;;;;;;;4.88;4.18;;;-0.90;99.90;;;;;;5010497;28;20389;-51
2023/02/28 06:28:31;;;;;;;5.20;4.70;;;-0.90;99.90;;;;;;5011756;28;20477;-47
2023/02/28 06:30:57;;;;;;;5.88;4.05;;;-0.90;99.90;;;;;;5010538;28;20033;-57
2023/02/28 06:33:23;;;;;;;6.68;4.05;;;-0.90;99.90;;;;;;5010403;28;20026;-47
2023/02/28 06:35:52;;;;;;;5.78;3.80;;;-0.90;99.90;;;;;;5011525;28;20450;-51
2023/02/28 06:38:18;;;;;;;5.13;4.05;;;-0.70;99.90;;;;;;5011591;28;20050;-53
2023/02/28 06:40:44;;;;;;;4.95;4.18;;;-0.30;99.90;;;;;;5011493;28;20077;-53
2023/02/28 06:43:13;;;;;;;8.57;4.90;;;0.10;99.90;;;;;;5011826;28;20476;-50
2023/02/28 06:45:42;;;;;;;5.15;4.05;;;0.50;99.90;;;;;;5011398;28;20208;-52
2023/02/28 06:48:07;;;;;;;4.60;3.50;;;1.00;99.90;;;;;;5010082;28;20437;-49
2023/02/28 06:50:36;;;;;;;4.82;3.58;;;1.40;99.90;;;;;;5011646;28;20029;-50
2023/02/28 06:53:02;;;;;;;5.05;3.55;;;1.60;99.90;;;;;;5010535;28;20057;-49
2023/02/28 06:55:27;;;;;;;4.22;3.20;;;1.60;99.90;;;;;;5011429;28;20030;-48
2023/02/28 06:57:54;;;;;;;3.35;2.90;;;1.80;99.90;;;;;;5011227;28;20026;-51
2023/02/28 07:00:20;;;;;;;3.50;3.20;;;2.30;99.90;;;;;;5011689;28;20101;-46
2023/02/28 07:02:46;;;;;;;4.85;3.50;;;2.30;99.90;;;;;;5014125;28;20117;-50
2023/02/28 07:05:12;;;;;;;5.32;3.35;;;2.50;99.90;;;;;;5015359;28;20029;-48
2023/02/28 07:07:40;;;;;;;4.85;2.95;;;2.70;99.90;;;;;;5015004;28;20045;-49
2023/02/28 07:10:06;;;;;;;3.22;2.92;;;2.90;99.90;;;;;;5015814;28;20033;-51
2023/02/28 07:12:32;;;;;;;3.88;2.90;;;3.00;99.90;;;;;;5015221;28;20030;-50
2023/02/28 07:14:57;;;;;;;3.53;2.90;;;3.20;99.90;;;;;;5015205;28;20509;-49
2023/02/28 07:17:23;;;;;;;3.03;2.58;;;3.20;99.90;;;;;;5015002;28;20045;-55
2023/02/28 07:19:48;;;;;;;5.05;3.45;;;3.40;99.90;;;;;;5013980;28;20096;-51
2023/02/28 07:22:14;;;;;;;4.43;3.45;;;3.60;99.90;;;;;;5014947;28;20032;-47
2023/02/28 07:24:39;;;;;;;4.90;2.67;;;3.70;99.90;;;;;;5014933;28;20109;-53
2023/02/28 07:27:05;;;;;;;4.50;2.40;;;4.10;99.90;;;;;;5014829;28;20052;-51
2023/02/28 07:29:30;;;;;;;7.30;3.17;;;4.50;98.80;;;;;;5013784;28;20037;-47
2023/02/28 07:31:56;;;;;;;5.60;3.30;;;4.60;99.10;;;;;;5014923;28;20065;-50
2023/02/28 07:34:22;;;;;;;3.00;2.70;;;4.90;98.10;;;;;;5014997;28;20022;-52
2023/02/28 07:36:48;;;;;;;4.13;2.70;;;5.00;97.40;;;;;;5014479;28;20439;-54
2023/02/28 07:39:13;;;;;;;4.63;3.22;;;4.80;98.00;;;;;;5013413;28;20110;-50
2023/02/28 07:41:43;;;;;;;4.20;3.13;;;4.40;97.70;;;;;;5015005;28;20033;-50
2023/02/28 07:44:10;;;;;;;3.67;3.00;;;3.60;98.90;;;;;;5013393;28;20379;-50
2023/02/28 07:46:36;;;;;;;4.35;3.03;;;2.80;99.90;;;;;;5014251;28;20036;-49
2023/02/28 07:49:02;;;;;;;4.60;2.80;;;2.20;99.90;;;;;;5014651;28;20026;-48
2023/02/28 07:51:29;;;;;;;4.40;3.42;;;1.90;99.90;;;;;;5014622;28;20026;-54
2023/02/28 07:53:54;;;;;;;3.85;3.45;;;1.60;99.90;;;;;;5014398;28;20347;-51
2023/02/28 07:56:20;;;;;;;3.88;3.40;;;1.50;99.90;;;;;;5013886;28;20026;-48
2023/02/28 07:58:45;;;;;;;4.20;3.40;;;1.40;99.90;;;;;;5014233;28;20049;-49
2023/02/28 08:01:12;;;;;;;7.00;3.58;;;1.30;99.90;;;;;;5014376;28;20391;-49
2023/02/28 08:03:39;;;;;;;3.88;3.30;;;1.20;99.90;;;;;;5014463;28;20022;-50
2023/02/28 08:06:06;;;;;;;4.30;3.13;;;1.20;99.90;;;;;;5012841;28;20264;-51
2023/02/28 08:08:32;;;;;;;4.57;3.40;;;1.30;99.90;;;;;;5014295;28;20512;-48
2023/02/28 08:11:02;;;;;;;6.30;3.50;;;1.20;99.90;;;;;;5014236;28;20026;-49
2023/02/28 08:13:28;;;;;;;4.97;3.60;;;1.20;99.90;;;;;;5013433;28;20033;-52
2023/02/28 08:15:56;;;;;;;3.72;2.97;;;;;;;;;;5013932;28;20026;-49
2023/02/28 08:18:22;;;;;;;5.18;4.13;;;1.30;99.90;;;;;;5013614;28;20046;-57
2023/02/28 08:20:47;;;;;;;3.67;3.38;;;1.40;99.90;;;;;;5013103;28;20029;-59
2023/02/28 08:23:13;;;;;;;6.93;3.83;;;1.40;99.90;;;;;;5013664;28;20520;-55
2023/02/28 08:25:39;;;;;;;4.65;3.92;;;1.50;99.90;;;;;;5013739;28;20033;-54
2023/02/28 08:28:04;;;;;;;4.00;3.55;;;1.50;99.90;;;;;;5013735;28;20030;-50
2023/02/28 08:30:30;;;;;;;10.35;3.58;;;1.60;99.90;;;;;;5013481;28;20493;-50
2023/02/28 08:32:56;;;;;;;9.50;3.40;;;1.70;99.90;;;;;;5013258;28;20025;-59
2023/02/28 08:35:22;;;;;;;3.55;3.05;;;1.70;99.90;;;;;;5012565;28;20025;-53
2023/02/28 08:37:49;;;;;;;3.67;3.20;;;1.80;99.90;;;;;;5011756;28;20041;-53
2023/02/28 08:40:17;;;;;;;4.88;3.42;;;1.90;99.90;;;;;;5011456;28;20036;-53
2023/02/28 08:42:44;;;;;;;4.15;3.30;;;2.00;99.90;;;;;;5004902;28;20022;-53
2023/02/28 08:45:10;;;;;;;5.00;4.00;;;2.10;99.90;;;;;;5011168;28;20553;-50
2023/02/28 08:47:36;;;;;;;5.72;3.42;;;2.20;99.90;;;;;;5013270;28;20409;-49
2023/02/28 08:50:02;;;;;;;5.57;4.13;;;2.10;99.90;;;;;;5013478;28;20029;-51
2023/02/28 08:52:27;;;;;;;4.95;3.72;;;2.10;99.90;;;;;;5011975;28;20116;-55
2023/02/28 08:54:53;;;;;;;4.60;3.70;;;2.00;99.90;;;;;;5013090;28;20097;-51
2023/02/28 08:57:18;;;;;;;7.47;3.88;;;2.00;99.90;;;;;;5013115;28;20109;-57
2023/02/28 08:59:44;;;;;;;5.47;4.15;;;2.00;99.90;;;;;;5011892;28;20026;-50
2023/02/28 09:02:13;;;;;;;4.93;3.55;;;2.10;99.90;;;;;;5013026;28;20022;-51
2023/02/28 09:04:38;;;;;;;6.65;3.97;;;2.10;99.90;;;;;;5013099;28;20076;-57
2023/02/28 09:07:04;;;;;;;5.32;4.18;;;2.10;99.90;;;;;;5012935;28;20038;-53
2023/02/28 09:09:29;;;;;;;4.15;3.42;;;2.10;99.90;;;;;;5045009;28;20112;-57
2023/02/28 09:11:56;;;;;;;5.68;4.10;;;2.20;99.90;;;;;;5012694;28;20425;-59
2023/02/28 09:14:21;;;;;;;5.28;3.92;;;2.10;99.90;;;;;;5012538;28;20025;-58
2023/02/28 09:16:47;;;;;;;4.30;3.90;;;2.20;99.90;;;;;;5012660;28;20087;-60
2023/02/28 09:19:13;;;;;;;4.20;3.80;;;2.30;99.90;;;;;;5011710;28;20513;-54
2023/02/28 09:21:39;;;;;;;6.25;3.97;;;2.50;99.90;;;;;;5009934;28;20054;-60
2023/02/28 09:24:05;;;;;;;4.75;3.30;;;2.40;99.40;;;;;;5012361;28;20085;-55
2023/02/28 09:26:30;;;;;;;6.22;4.28;;;2.30;99.70;;;;;;5011079;28;20045;-55
2023/02/28 09:28:58;;;;;;;6.60;3.83;;;2.40;99.70;;;;;;5012702;28;20498;-55
2023/02/28 09:31:27;;;;;;;4.35;3.80;;;2.50;99.40;;;;;;5013182;28;20026;-57
2023/02/28 09:33:55;;;;;;;4.57;4.15;;;3.10;98.80;;;;;;5012729;28;20065;-52
2023/02/28 09:36:21;;;;;;;4.60;3.20;;;4.60;96.60;;;;;;5012286;28;20095;-53
2023/02/28 09:38:47;;;;;;;5.28;3.83;;;4.80;95.70;;;;;;5012586;28;20080;-52
2023/02/28 09:41:25;;;;;;;5.35;4.22;;;5.10;95.00;;;;;;5012463;28;20022;-52
2023/02/28 09:43:55;;;;;;;4.72;3.83;;;5.60;94.00;;;;;;5012826;28;20422;-52
2023/02/28 09:46:31;;;;;;;4.68;3.80;;;;;;;;;;5012259;28;20038;-51
2023/02/28 09:48:58;;;;;;;6.47;3.65;;;6.20;92.80;;;;;;5012291;28;20064;-54
2023/02/28 09:51:29;;;;;;;5.90;4.03;;;6.80;92.20;;;;;;5012477;28;20064;-52
2023/02/28 09:53:55;;;;;;;4.72;3.65;;;6.90;92.40;;;;;;5012211;28;20026;-55
2023/02/28 09:56:27;;;;;;;4.55;3.70;;;7.50;89.60;;;;;;5011800;28;20028;-54
2023/02/28 09:59:05;;;;;;;8.32;4.35;;;7.20;90.20;;;;;;5010886;28;20049;-54
2023/02/28 10:01:48;;;;;;;6.03;4.28;;;7.00;90.50;;;;;;5012178;28;20022;-55
2023/02/28 10:04:54;;;;;;;7.20;4.60;;;7.10;90.50;;;;;;5012236;28;20022;-55
2023/02/28 10:07:48;;;;;;;6.03;5.00;;;6.60;87.20;;;;;;5011728;28;20045;-57
2023/02/28 10:10:38;;;;;;;6.43;4.45;;;6.10;89.10;;;;;;5005673;28;20062;-55
2023/02/28 10:13:13;;;;;;;5.63;4.25;;;5.90;90.50;;;;;;5010351;28;20037;-55
2023/02/28 10:15:39;;;;;;;6.18;4.65;;;5.60;90.00;;;;;;5011812;28;20025;-52
2023/02/28 10:18:10;;;;;;;14.18;4.22;;;5.50;90.60;;;;;;5011672;28;20366;-57
2023/02/28 10:20:39;;;;;;;6.65;4.20;;;5.70;90.30;;;;;;5011880;28;20056;-56
2023/02/28 10:23:24;;;;;;;5.10;4.00;;;5.70;90.30;;;;;;5012045;28;20069;-56
2023/02/28 10:26:18;;;;;;;7.15;5.05;;;5.40;90.40;;;;;;5006991;28;20080;-52
2023/02/28 10:28:44;;;;;;;6.50;4.00;;;5.30;91.20;;;;;;4992451;28;20030;-53
2023/02/28 10:31:17;;;;;;;4.72;4.32;;;5.40;90.90;;;;;;5005859;28;20402;-50
2023/02/28 10:33:42;;;;;;;6.90;4.95;;;5.20;90.40;;;;;;5012292;28;20026;-53
2023/02/28 10:36:14;;;;;;;7.53;4.13;;;5.00;91.00;;;;;;5010983;28;20394;-54
2023/02/28 10:38:40;;;;;;;7.20;4.65;;;5.00;90.80;;;;;;5015672;28;20057;-57
2023/02/28 10:41:12;;;;;;;5.45;4.25;;;4.70;91.10;;;;;;5016798;28;20033;-52
2023/02/28 10:43:39;;;;;;;6.10;4.72;;;4.70;91.40;;;;;;5017923;28;20053;-53
2023/02/28 10:46:08;;;;;;;9.05;5.70;;;4.80;91.00;;;;;;5017809;28;20091;-57
2023/02/28 10:48:44;;;;;;;6.47;5.50;;;4.70;91.30;;;;;;5012790;28;20506;-57
2023/02/28 10:51:12;;;;;;;6.15;5.00;;;4.40;91.60;;;;;;5017891;28;20481;-52
2023/02/28 10:53:47;;;;;;;5.43;4.70;;;4.10;92.10;;;;;;5018096;28;20038;-51
2023/02/28 10:56:16;;;;;;;7.55;5.90;;;4.10;92.50;;;;;;5018242;28;20033;-55
2023/02/28 10:59:01;;;;;;;5.40;4.68;;;4.10;92.40;;;;;;5018538;28;20049;-58
2023/02/28 11:01:30;;;;;;;11.02;5.35;;;4.30;91.80;;;;;;5018097;28;20021;-56
2023/02/28 11:03:57;;;;;;;6.72;4.95;;;4.50;92.00;;;;;;5018028;28;20049;-55
2023/02/28 11:06:32;;;;;;;7.30;4.80;;;4.70;91.70;;;;;;5017560;28;20037;-52
2023/02/28 11:09:00;;;;;;;;;;;4.90;91.20;;;;;;5013461;28;20379;-53
2023/02/28 11:11:28;;;;;;;5.32;4.85;;;4.80;90.70;;;;;;5031303;28;19909;-55
2023/02/28 11:13:58;;;;;;;5.38;4.25;;;4.70;91.40;;;;;;5017642;28;20393;-56
2023/02/28 11:16:34;;;;;;;6.53;4.10;;;4.60;91.30;;;;;;5003799;28;20033;-54
2023/02/28 11:18:59;;;;;;;4.70;4.18;;;4.60;91.20;;;;;;5015536;28;20053;-51
2023/02/28 11:21:36;;;;;;;5.78;5.15;;;4.40;91.50;;;;;;5007369;28;20711;-64
2023/02/28 11:24:19;;;;;;;8.20;4.82;;;4.50;91.70;;;;;;5006945;28;20033;-66
2023/02/28 11:26:48;;;;;;;6.72;5.28;;;4.40;91.90;;;;;;5009395;28;20038;-63
2023/02/28 11:29:47;;;;;;;7.97;5.28;;;4.40;92.20;;;;;;5006577;28;20543;-62
2023/02/28 11:32:20;;;;;;;6.95;4.60;;;4.40;91.40;;;;;;4983777;28;20053;-60
2023/02/28 11:35:00;;;;;;;7.78;4.70;;;4.30;91.70;;;;;;5007410;28;20030;-57
2023/02/28 11:37:27;;;;;;;4.88;4.45;;;4.40;91.80;;;;;;5006761;28;20026;-62
2023/02/28 11:39:53;;;;;;;6.60;4.72;;;4.40;91.60;;;;;;5009685;28;20037;-62
2023/02/28 11:42:22;;;;;;;8.23;4.30;;;4.40;91.90;;;;;;5008562;28;20021;-64
2023/02/28 11:45:33;;;;;;;7.15;5.13;;;4.40;91.50;;;;;;5007554;28;20375;-66
2023/02/28 11:48:23;;;;;;;6.20;4.60;;;4.40;91.70;;;;;;5005409;28;20359;-64
2023/02/28 11:51:13;;;;;;;4.80;4.38;;;4.40;91.80;;;;;;5001896;28;20041;-59
2023/02/28 11:53:55;;;;;;;7.03;5.75;;;4.50;92.30;;;;;;5004127;28;20454;-60
2023/02/28 11:56:29;;;;;;;6.53;5.15;;;4.40;92.00;;;;;;5004527;28;20784;-51
2023/02/28 11:59:08;;;;;;;7.30;5.60;;;4.60;92.20;;;;;;5009529;28;20030;-58
2023/02/28 12:01:57;;;;;;;9.18;5.72;;;4.60;92.00;;;;;;5011343;28;20033;-61
2023/02/28 12:04:34;;;;;;;6.72;5.40;;;4.70;92.30;;;;;;4997803;28;20153;-58
2023/02/28 12:07:17;;;;;;;10.52;6.25;;;4.80;92.80;;;;;;5023292;23;20141;-57
2023/02/28 12:10:05;;;;;;;18.83;10.57;;;4.90;91.40;;;;;;5022412;28;20941;-59
2023/02/28 12:13:01;;;;;;;6.68;5.03;;;5.00;91.90;;;;;;5020267;28;20033;-59
2023/02/28 12:15:40;;;;;;;5.82;4.93;;;4.70;91.70;;;;;;5025665;28;20037;-59
2023/02/28 12:18:22;;;;;;;6.88;6.18;;;4.70;92.00;;;;;;5040606;28;20029;-58
2023/02/28 12:21:10;;;;;;;6.05;5.43;;;4.80;91.60;;;;;;5044045;28;20029;-55
2023/02/28 12:24:19;;;;;;;5.03;4.53;;;4.70;91.80;;;;;;5044407;28;20049;-59
2023/02/28 12:26:46;;;;;;;7.68;5.65;;;4.80;91.70;;;;;;5043744;28;20102;-55
2023/02/28 12:29:19;;;;;;;5.78;5.10;;;4.80;92.30;;;;;;5043361;28;20049;-61
2023/02/28 12:31:50;;;;;;;5.15;4.35;;;4.80;91.70;;;;;;5043370;28;20029;-63
2023/02/28 12:34:22;;;;;;;8.07;5.10;;;4.90;91.90;;;;;;5045303;28;20102;-61
2023/02/28 12:36:49;;;;;;;5.93;4.70;;;4.80;91.40;;;;;;5043531;28;20040;-61
2023/02/28 12:39:23;;;;;;;6.88;4.95;;;4.70;91.70;;;;;;5040994;28;20124;-49
2023/02/28 12:41:59;;;;;;;5.93;4.85;;;4.80;92.10;;;;;;5043676;28;20497;-60
2023/02/28 12:44:34;;;;;;;8.20;5.13;;;4.80;91.90;;;;;;5043074;28;20098;-59
2023/02/28 12:47:08;;;;;;;7.40;4.88;;;4.70;91.80;;;;;;5039972;28;20033;-54
2023/02/28 12:49:39;;;;;;;7.32;5.60;;;4.70;91.40;;;;;;5041327;28;20140;-60
2023/02/28 12:52:05;;;;;;;5.25;4.70;;;4.60;91.70;;;;;;5043907;28;20539;-58
2023/02/28 12:54:36;;;;;;;6.40;5.35;;;4.80;92.20;;;;;;5043817;28;20032;-55
2023/02/28 12:57:37;;;;;;;9.15;5.95;;;4.90;91.40;;;;;;5043170;28;20075;-53
2023/02/28 13:00:20;;;;;;;5.63;5.10;;;4.80;91.10;;;;;;5037913;28;20106;-51
2023/02/28 13:03:30;;;;;;;6.07;5.07;;;4.80;91.40;;;;;;5041692;28;20401;-58
2023/02/28 13:06:19;;;;;;;6.78;5.10;;;4.80;91.80;;;;;;5037832;28;20424;-57
2023/02/28 13:09:09;;;;;;;7.57;6.20;;;4.90;91.40;;;;;;5039979;28;20155;-54
2023/02/28 13:11:45;;;;;;;8.43;6.07;;;4.90;91.60;;;;;;5041450;28;20036;-55
2023/02/28 13:14:37;;;;;;;7.30;5.40;;;4.90;91.80;;;;;;5042032;28;20036;-53